createdAt,value
2017-05-23T00:01:47.014Z,6.64
2017-05-23T00:04:15.331Z,7.22
2017-05-23T00:06:43.655Z,6.48
2017-05-23T00:09:11.996Z,5.82
2017-05-23T00:11:40.306Z,5.68
2017-05-23T00:14:08.635Z,6.80
2017-05-23T00:16:36.942Z,6.30
2017-05-23T00:19:05.282Z,6.56
2017-05-23T00:21:33.592Z,5.98
2017-05-23T00:24:01.927Z,6.06
2017-05-23T00:26:31.817Z,5.88
2017-05-23T00:29:00.218Z,6.00
2017-05-23T00:31:28.560Z,5.90
2017-05-23T00:33:56.874Z,5.96
2017-05-23T00:36:25.270Z,6.38
2017-05-23T00:38:53.575Z,6.28
2017-05-23T00:41:21.886Z,6.88
2017-05-23T00:43:50.190Z,6.46
2017-05-23T00:46:18.507Z,6.56
2017-05-23T00:48:46.859Z,6.24
2017-05-23T00:51:15.179Z,7.24
2017-05-23T00:53:43.699Z,7.46
2017-05-23T00:56:12.099Z,6.98
2017-05-23T00:58:40.479Z,7.38
2017-05-23T01:01:08.858Z,6.86
2017-05-23T01:03:37.240Z,7.38
2017-05-23T01:06:05.559Z,6.64
2017-05-23T01:08:33.874Z,7.22
2017-05-23T01:11:02.179Z,7.04
2017-05-23T01:13:30.486Z,6.64
2017-05-23T01:15:58.803Z,7.52
2017-05-23T01:18:27.111Z,7.46
2017-05-23T01:20:55.440Z,7.06
2017-05-23T01:23:23.763Z,6.70
2017-05-23T01:25:52.146Z,7.26
2017-05-23T01:28:20.454Z,7.56
2017-05-23T01:30:55.247Z,6.44
2017-05-23T01:33:23.924Z,7.24
2017-05-23T01:35:52.226Z,6.88
2017-05-23T01:38:20.601Z,7.14
2017-05-23T01:40:48.906Z,6.86
2017-05-23T01:43:17.228Z,7.74
2017-05-23T01:45:45.531Z,6.86
2017-05-23T01:48:13.835Z,7.08
2017-05-23T01:50:42.146Z,6.72
2017-05-23T01:53:10.464Z,7.10
2017-05-23T01:55:38.859Z,7.26
2017-05-23T01:58:07.232Z,6.50
2017-05-23T02:00:35.610Z,6.52
2017-05-23T02:03:03.923Z,6.60
2017-05-23T02:05:32.243Z,7.24
2017-05-23T02:08:00.554Z,7.12
2017-05-23T02:10:28.920Z,7.20
2017-05-23T02:12:57.299Z,7.54
2017-05-23T02:15:25.675Z,7.80
2017-05-23T02:17:53.994Z,6.86
2017-05-23T02:20:22.304Z,6.58
2017-05-23T02:22:50.615Z,6.76
2017-05-23T02:25:18.999Z,6.84
2017-05-23T02:27:47.380Z,7.56
2017-05-23T02:30:15.695Z,8.08
2017-05-23T02:32:44.032Z,7.80
2017-05-23T02:35:12.342Z,8.14
2017-05-23T02:37:40.655Z,7.38
2017-05-23T02:40:08.970Z,7.24
2017-05-23T02:42:37.346Z,7.90
2017-05-23T02:45:05.656Z,7.34
2017-05-23T02:47:34.011Z,6.90
2017-05-23T02:50:02.314Z,6.84
2017-05-23T02:52:30.655Z,7.52
2017-05-23T02:54:58.969Z,6.98
2017-05-23T02:57:27.323Z,7.36
2017-05-23T02:59:55.698Z,7.90
2017-05-23T03:02:24.002Z,6.88
2017-05-23T03:04:52.362Z,7.78
2017-05-23T03:07:20.743Z,7.52
2017-05-23T03:09:49.052Z,7.44
2017-05-23T03:12:17.367Z,7.98
2017-05-23T03:14:59.531Z,7.62
2017-05-23T03:17:28.898Z,7.74
2017-05-23T03:19:57.279Z,8.42
2017-05-23T03:22:25.592Z,7.82
2017-05-23T03:24:53.943Z,8.54
2017-05-23T03:27:22.319Z,8.22
2017-05-23T03:29:50.622Z,7.42
2017-05-23T03:32:18.975Z,7.16
2017-05-23T03:34:47.283Z,8.22
2017-05-23T03:37:15.610Z,7.82
2017-05-23T03:39:43.918Z,8.40
2017-05-23T03:42:12.267Z,7.98
2017-05-23T03:44:41.446Z,8.10
2017-05-23T03:47:09.859Z,9.18
2017-05-23T03:49:38.246Z,9.16
2017-05-23T03:52:06.559Z,7.88
2017-05-23T03:54:34.872Z,8.80
2017-05-23T03:57:03.326Z,7.48
2017-05-23T03:59:31.655Z,7.72
2017-05-23T04:02:00.045Z,8.40
2017-05-23T04:04:28.440Z,7.92
2017-05-23T04:06:56.754Z,7.94
2017-05-23T04:09:25.199Z,8.90
2017-05-23T04:11:53.567Z,7.88
2017-05-23T04:14:21.955Z,7.96
2017-05-23T04:16:50.267Z,8.58
2017-05-23T04:19:18.615Z,8.38
2017-05-23T04:21:46.925Z,8.30
2017-05-23T04:24:15.249Z,8.76
2017-05-23T04:26:43.582Z,8.54
2017-05-23T04:29:11.890Z,7.94
2017-05-23T04:31:40.298Z,8.74
2017-05-23T04:34:08.607Z,7.40
2017-05-23T04:36:37.061Z,7.74
2017-05-23T04:39:05.530Z,7.40
2017-05-23T04:41:33.926Z,7.72
2017-05-23T04:44:02.253Z,7.00
2017-05-23T04:46:31.213Z,8.08
2017-05-23T04:48:59.857Z,8.28
2017-05-23T04:51:28.925Z,9.00
2017-05-23T04:53:57.256Z,7.58
2017-05-23T04:56:25.562Z,9.14
2017-05-23T04:58:53.924Z,8.46
2017-05-23T05:01:22.302Z,7.68
2017-05-23T05:03:50.634Z,8.96
2017-05-23T05:06:18.944Z,8.28
2017-05-23T05:08:47.338Z,8.74
2017-05-23T05:11:15.651Z,8.52
2017-05-23T05:13:43.964Z,7.80
2017-05-23T05:16:12.305Z,8.70
2017-05-23T05:18:40.607Z,7.28
2017-05-23T05:21:09.039Z,8.26
2017-05-23T05:23:37.351Z,7.60
2017-05-23T05:26:05.655Z,7.42
2017-05-23T05:28:33.967Z,7.82
2017-05-23T05:31:02.350Z,18.36
2017-05-23T05:33:30.722Z,8.60
2017-05-23T05:35:59.056Z,9.06
2017-05-23T05:38:27.788Z,8.54
2017-05-23T05:40:56.097Z,8.20
2017-05-23T05:43:24.820Z,7.98
2017-05-23T05:45:53.122Z,7.84
2017-05-23T05:48:21.438Z,6.82
2017-05-23T05:50:49.747Z,8.34
2017-05-23T05:53:18.066Z,6.80
2017-05-23T05:55:46.402Z,7.48
2017-05-23T05:58:14.732Z,6.90
2017-05-23T06:00:43.063Z,6.44
2017-05-23T06:03:11.375Z,7.10
2017-05-23T06:05:39.762Z,6.44
2017-05-23T06:08:08.067Z,7.30
2017-05-23T06:10:36.423Z,6.72
2017-05-23T06:13:22.263Z,7.42
2017-05-23T06:15:50.678Z,7.52
2017-05-23T06:18:19.072Z,8.72
2017-05-23T06:20:47.410Z,6.78
2017-05-23T06:23:15.716Z,6.14
2017-05-23T06:25:44.115Z,5.90
2017-05-23T06:28:12.427Z,6.18
2017-05-23T06:30:40.738Z,6.46
2017-05-23T06:33:09.147Z,5.88
2017-05-23T06:35:37.527Z,6.10
2017-05-23T06:38:05.858Z,6.10
2017-05-23T06:40:34.181Z,5.62
2017-05-23T06:43:02.571Z,5.50
2017-05-23T06:45:30.943Z,6.04
2017-05-23T06:47:59.331Z,5.80
2017-05-23T06:50:35.178Z,5.66
2017-05-23T06:53:03.554Z,5.10
2017-05-23T06:55:31.940Z,5.28
2017-05-23T06:58:00.321Z,5.02
2017-05-23T07:00:28.622Z,5.22
2017-05-23T07:02:56.983Z,5.48
2017-05-23T07:05:25.315Z,4.90
2017-05-23T07:07:53.635Z,5.64
2017-05-23T07:10:22.013Z,5.10
2017-05-23T07:12:50.394Z,5.42
2017-05-23T07:15:18.771Z,5.36
2017-05-23T07:17:47.082Z,5.20
2017-05-23T07:20:15.386Z,4.76
2017-05-23T07:22:43.716Z,4.50
2017-05-23T07:25:12.023Z,5.76
2017-05-23T07:27:40.376Z,4.72
2017-05-23T07:30:08.750Z,4.82
2017-05-23T07:32:37.081Z,5.02
2017-05-23T07:35:05.414Z,4.70
2017-05-23T07:37:33.793Z,4.90
2017-05-23T07:40:02.109Z,5.14
2017-05-23T07:42:30.446Z,4.84
2017-05-23T07:44:58.757Z,4.80
2017-05-23T07:47:27.064Z,4.88
2017-05-23T07:49:55.394Z,5.26
2017-05-23T07:52:23.700Z,4.64
2017-05-23T07:54:52.035Z,4.62
2017-05-23T07:57:20.414Z,5.44
2017-05-23T07:59:48.794Z,5.44
2017-05-23T08:02:17.099Z,5.00
2017-05-23T08:04:45.450Z,5.00
2017-05-23T08:07:13.830Z,5.62
2017-05-23T08:09:42.143Z,4.94
2017-05-23T08:12:10.451Z,5.12
2017-05-23T08:14:38.767Z,5.04
2017-05-23T08:17:07.072Z,4.98
2017-05-23T08:19:35.433Z,4.52
2017-05-23T08:22:03.738Z,4.80
2017-05-23T08:24:32.079Z,5.60
2017-05-23T08:27:00.463Z,4.72
2017-05-23T08:29:28.851Z,4.68
2017-05-23T08:31:57.162Z,5.46
2017-05-23T08:34:25.471Z,5.56
2017-05-23T08:36:53.779Z,5.04
2017-05-23T08:39:22.087Z,5.50
2017-05-23T08:41:50.394Z,5.24
2017-05-23T08:44:18.727Z,4.96
2017-05-23T08:46:47.039Z,5.72
2017-05-23T08:49:15.379Z,4.98
2017-05-23T08:51:43.746Z,5.10
2017-05-23T08:54:12.134Z,5.52
2017-05-23T08:56:40.511Z,6.42
2017-05-23T08:59:08.815Z,5.42
2017-05-23T09:01:37.166Z,5.46
2017-05-23T09:04:05.550Z,5.64
2017-05-23T09:06:33.891Z,5.26
2017-05-23T09:09:02.297Z,5.00
2017-05-23T09:11:30.654Z,4.94
2017-05-23T09:13:58.960Z,4.88
2017-05-23T09:16:27.341Z,5.38
2017-05-23T09:18:55.727Z,5.52
2017-05-23T09:21:24.110Z,4.60
2017-05-23T09:23:52.488Z,5.40
2017-05-23T09:26:26.422Z,5.66
2017-05-23T09:28:54.792Z,4.90
2017-05-23T09:31:23.158Z,5.86
2017-05-23T09:33:51.530Z,5.08
2017-05-23T09:36:19.839Z,5.48
2017-05-23T09:38:48.195Z,5.00
2017-05-23T09:41:16.570Z,4.38
2017-05-23T09:43:44.952Z,5.04
2017-05-23T09:46:13.259Z,4.72
2017-05-23T09:48:41.568Z,5.14
2017-05-23T09:51:09.871Z,4.70
2017-05-23T09:53:38.176Z,4.48
2017-05-23T09:56:06.514Z,4.86
2017-05-23T09:58:34.823Z,5.06
2017-05-23T10:01:03.206Z,5.54
2017-05-23T10:03:31.583Z,4.92
2017-05-23T10:05:59.895Z,4.70
2017-05-23T10:08:28.199Z,5.58
2017-05-23T10:10:56.524Z,4.70
2017-05-23T10:13:24.831Z,5.06
2017-05-23T10:15:53.137Z,5.00
2017-05-23T10:18:21.479Z,4.78
2017-05-23T10:20:49.838Z,4.84
2017-05-23T10:23:18.178Z,4.80
2017-05-23T10:25:46.598Z,5.62
2017-05-23T10:28:14.914Z,5.00
2017-05-23T10:30:43.227Z,5.00
2017-05-23T10:33:11.720Z,4.74
2017-05-23T10:35:40.057Z,5.12
2017-05-23T10:38:08.395Z,4.56
2017-05-23T10:40:36.762Z,5.28
2017-05-23T10:43:05.148Z,5.24
2017-05-23T10:45:33.525Z,5.00
2017-05-23T10:48:01.831Z,5.38
2017-05-23T10:50:30.191Z,5.68
2017-05-23T10:52:58.567Z,4.84
2017-05-23T10:55:26.868Z,5.08
2017-05-23T10:57:55.204Z,4.84
2017-05-23T11:00:23.514Z,5.68
2017-05-23T11:02:51.886Z,5.28
2017-05-23T11:05:20.220Z,5.10
2017-05-23T11:07:48.539Z,4.82
2017-05-23T11:10:16.920Z,6.22
2017-05-23T11:12:45.300Z,6.22
2017-05-23T11:15:13.626Z,5.62
2017-05-23T11:17:41.926Z,4.98
2017-05-23T11:20:10.279Z,6.36
2017-05-23T11:22:38.592Z,5.32
2017-05-23T11:25:06.898Z,5.48
2017-05-23T11:27:35.271Z,5.46
2017-05-23T11:30:03.575Z,5.92
2017-05-23T11:32:31.939Z,6.48
2017-05-23T11:35:00.247Z,6.30
2017-05-23T11:37:28.556Z,6.44
2017-05-23T11:39:56.884Z,5.38
2017-05-23T11:42:25.257Z,5.38
2017-05-23T11:44:53.621Z,6.48
2017-05-23T11:47:21.959Z,6.70
2017-05-23T11:49:50.285Z,5.92
2017-05-23T11:52:18.660Z,6.70
2017-05-23T11:54:47.040Z,5.80
2017-05-23T11:57:15.343Z,5.98
2017-05-23T11:59:43.651Z,6.50
2017-05-23T12:02:11.958Z,6.42
2017-05-23T12:04:40.263Z,6.82
2017-05-23T12:07:08.630Z,7.42
2017-05-23T12:09:36.936Z,7.46
2017-05-23T12:12:05.243Z,7.22
2017-05-23T12:14:33.608Z,7.64
2017-05-23T12:17:01.915Z,7.56
2017-05-23T12:19:30.338Z,7.94
2017-05-23T12:21:58.647Z,7.40
2017-05-23T12:24:26.963Z,7.50
2017-05-23T12:26:55.294Z,7.78
2017-05-23T12:29:23.642Z,8.50
2017-05-23T12:31:52.026Z,7.10
2017-05-23T12:34:20.335Z,8.14
2017-05-23T12:36:48.693Z,8.14
2017-05-23T12:39:17.017Z,8.32
2017-05-23T12:41:45.331Z,9.16
2017-05-23T12:44:13.668Z,9.50
2017-05-23T12:46:41.976Z,7.58
2017-05-23T12:49:10.320Z,9.24
2017-05-23T12:51:38.663Z,8.44
2017-05-23T12:54:07.032Z,9.70
2017-05-23T12:56:35.422Z,10.74
2017-05-23T12:59:03.800Z,9.72
2017-05-23T13:01:32.172Z,11.00
2017-05-23T13:04:00.554Z,11.32
2017-05-23T13:06:28.888Z,11.00
2017-05-23T13:08:57.207Z,9.80
2017-05-23T13:11:25.588Z,9.12
2017-05-23T13:13:53.975Z,10.46
2017-05-23T13:16:22.354Z,10.36
2017-05-23T13:18:50.670Z,10.44
2017-05-23T13:21:19.006Z,12.24
2017-05-23T13:23:47.328Z,11.00
2017-05-23T13:26:15.655Z,9.24
2017-05-23T13:28:43.995Z,9.32
2017-05-23T13:31:12.303Z,8.92
2017-05-23T13:33:40.639Z,8.72
2017-05-23T13:36:08.978Z,8.68
2017-05-23T13:38:37.323Z,6.94
2017-05-23T13:41:05.635Z,5.48
2017-05-23T13:43:33.938Z,4.82
2017-05-23T13:46:02.298Z,4.58
2017-05-23T13:48:30.618Z,4.38
2017-05-23T13:50:59.058Z,5.20
2017-05-23T13:53:27.364Z,4.36
2017-05-23T13:55:55.810Z,4.64
2017-05-23T13:58:24.191Z,5.18
2017-05-23T14:00:52.495Z,4.58
2017-05-23T14:03:20.855Z,4.74
2017-05-23T14:05:49.234Z,4.48
2017-05-23T14:08:17.607Z,4.86
2017-05-23T14:10:45.918Z,4.30
2017-05-23T14:13:14.271Z,5.08
2017-05-23T14:15:42.581Z,5.20
2017-05-23T14:18:10.931Z,4.82
2017-05-23T14:20:39.306Z,5.34
2017-05-23T14:23:07.625Z,4.52
2017-05-23T14:25:36.059Z,5.40
2017-05-23T14:28:04.365Z,5.58
2017-05-23T14:30:32.724Z,5.90
2017-05-23T14:33:01.110Z,6.48
2017-05-23T14:35:29.494Z,6.28
2017-05-23T14:37:57.870Z,6.08
2017-05-23T14:40:26.217Z,6.48
2017-05-23T14:42:54.523Z,6.36
2017-05-23T14:45:22.894Z,7.04
2017-05-23T14:47:51.226Z,6.52
2017-05-23T14:50:19.529Z,6.26
2017-05-23T14:52:47.861Z,5.62
2017-05-23T14:55:16.219Z,5.38
2017-05-23T14:57:44.609Z,6.00
2017-05-23T15:00:12.978Z,4.88
2017-05-23T15:02:41.360Z,4.82
2017-05-23T15:05:09.695Z,5.48
2017-05-23T15:07:38.011Z,5.08
2017-05-23T15:10:06.325Z,4.74
2017-05-23T15:12:34.679Z,4.50
2017-05-23T15:15:03.046Z,4.58
2017-05-23T15:17:31.430Z,4.74
2017-05-23T15:19:59.739Z,8.74
2017-05-23T15:22:28.053Z,5.96
2017-05-23T15:24:56.368Z,4.70
2017-05-23T15:27:24.744Z,3.90
2017-05-23T15:29:53.124Z,3.30
2017-05-23T15:32:21.435Z,3.42
2017-05-23T15:34:49.786Z,3.26
2017-05-23T15:37:18.092Z,3.22
2017-05-23T15:39:46.411Z,3.64
2017-05-23T15:42:14.715Z,3.60
2017-05-23T15:44:43.020Z,3.66
2017-05-23T15:47:11.378Z,4.86
2017-05-23T15:49:39.740Z,5.10
2017-05-23T15:52:08.078Z,6.26
2017-05-23T15:54:36.414Z,6.30
2017-05-23T15:57:04.741Z,8.84
2017-05-23T15:59:33.087Z,5.60
2017-05-23T16:02:01.400Z,4.20
2017-05-23T16:04:29.711Z,4.96
2017-05-23T16:06:58.111Z,4.94
2017-05-23T16:09:26.458Z,5.86
2017-05-23T16:11:54.862Z,13.68
2017-05-23T16:14:23.249Z,10.58
2017-05-23T16:16:51.635Z,12.16
2017-05-23T16:19:19.955Z,12.12
2017-05-23T16:21:48.268Z,14.98
2017-05-23T16:24:16.587Z,14.80
2017-05-23T16:26:44.949Z,14.70
2017-05-23T16:29:13.327Z,13.42
2017-05-23T16:31:41.687Z,13.96
2017-05-23T16:34:10.081Z,10.16
2017-05-23T16:36:38.397Z,8.20
2017-05-23T16:39:06.745Z,7.78
2017-05-23T16:41:35.116Z,7.24
2017-05-23T16:44:03.431Z,7.50
2017-05-23T16:46:31.743Z,6.72
2017-05-23T16:49:00.071Z,7.02
2017-05-23T16:51:28.386Z,6.80
2017-05-23T16:53:56.743Z,6.82
2017-05-23T16:56:25.051Z,5.70
2017-05-23T16:58:53.356Z,6.10
2017-05-23T17:01:21.663Z,5.34
2017-05-23T17:03:49.975Z,5.30
2017-05-23T17:06:18.285Z,6.16
2017-05-23T17:08:46.683Z,5.70
2017-05-23T17:11:15.068Z,5.36
2017-05-23T17:13:43.387Z,5.10
2017-05-23T17:16:11.827Z,5.82
2017-05-23T17:18:40.213Z,4.92
2017-05-23T17:21:08.523Z,4.80
2017-05-23T17:23:36.831Z,5.08
2017-05-23T17:26:05.238Z,4.36
2017-05-23T17:28:33.631Z,4.26
2017-05-23T17:31:01.941Z,4.42
2017-05-23T17:33:30.383Z,4.76
2017-05-23T17:35:58.704Z,5.60
2017-05-23T17:38:27.043Z,4.38
2017-05-23T17:40:55.415Z,5.00
2017-05-23T17:43:23.799Z,4.40
2017-05-23T17:45:52.175Z,3.98
2017-05-23T17:48:20.489Z,4.14
2017-05-23T17:50:48.835Z,4.20
2017-05-23T17:53:17.145Z,4.24
2017-05-23T17:55:45.490Z,4.18
2017-05-23T17:58:13.803Z,3.88
2017-05-23T18:00:42.151Z,3.58
2017-05-23T18:03:10.483Z,3.60
2017-05-23T18:05:38.837Z,3.74
2017-05-23T18:08:07.163Z,3.22
2017-05-23T18:10:35.499Z,2.90
2017-05-23T18:13:03.846Z,3.52
2017-05-23T18:15:32.166Z,3.74
2017-05-23T18:18:00.547Z,2.76
2017-05-23T18:20:28.887Z,2.50
2017-05-23T18:22:57.236Z,2.72
2017-05-23T18:25:25.661Z,2.82
2017-05-23T18:27:54.026Z,2.56
2017-05-23T18:30:22.408Z,3.02
2017-05-23T18:32:50.777Z,3.08
2017-05-23T18:35:19.123Z,2.30
2017-05-23T18:37:47.447Z,2.30
2017-05-23T18:40:15.778Z,2.48
2017-05-23T18:42:44.105Z,2.84
2017-05-23T18:45:12.458Z,3.14
2017-05-23T18:47:40.804Z,2.28
2017-05-23T18:50:09.140Z,2.16
2017-05-23T18:52:37.457Z,2.00
2017-05-23T18:55:05.767Z,2.92
2017-05-23T18:57:34.103Z,2.10
2017-05-23T19:00:02.475Z,2.32
2017-05-23T19:02:30.799Z,2.52
2017-05-23T19:04:59.110Z,2.30
2017-05-23T19:07:27.422Z,2.40
2017-05-23T19:09:55.732Z,2.28
2017-05-23T19:12:24.119Z,1.74
2017-05-23T19:14:52.636Z,2.28
2017-05-23T19:17:21.012Z,2.24
2017-05-23T19:19:49.327Z,2.04
2017-05-23T19:22:17.670Z,2.12
2017-05-23T19:24:46.042Z,2.50
2017-05-23T19:27:14.362Z,2.20
2017-05-23T19:29:42.708Z,2.44
2017-05-23T19:32:11.018Z,2.38
2017-05-23T19:34:39.358Z,1.90
2017-05-23T19:37:07.742Z,2.12
2017-05-23T19:39:36.120Z,2.10
2017-05-23T19:42:04.499Z,2.10
2017-05-23T19:44:32.883Z,1.98
2017-05-23T19:47:01.279Z,2.06
2017-05-23T19:49:29.646Z,1.96
2017-05-23T19:51:57.955Z,2.06
2017-05-23T19:54:26.270Z,2.52
2017-05-23T19:56:54.583Z,2.80
2017-05-23T19:59:22.984Z,1.86
2017-05-23T20:01:51.428Z,1.96
2017-05-23T20:04:20.628Z,2.44
2017-05-23T20:06:49.022Z,1.88
2017-05-23T20:09:17.335Z,2.68
2017-05-23T20:11:45.664Z,2.34
2017-05-23T20:14:13.975Z,2.50
2017-05-23T20:16:42.328Z,2.36
2017-05-23T20:19:10.878Z,2.40
2017-05-23T20:21:39.203Z,1.80
2017-05-23T20:24:07.514Z,2.50
2017-05-23T20:26:35.824Z,1.94
2017-05-23T20:29:04.207Z,2.34
2017-05-23T20:31:32.610Z,2.08
2017-05-23T20:34:00.949Z,1.92
2017-05-23T20:36:29.284Z,2.50
2017-05-23T20:38:57.664Z,2.46
2017-05-23T20:41:26.028Z,2.40
2017-05-23T20:43:54.416Z,2.30
2017-05-23T20:46:22.779Z,2.16
2017-05-23T20:48:51.154Z,2.34
2017-05-23T20:51:19.471Z,2.20
2017-05-23T20:53:47.789Z,2.70
2017-05-23T20:56:16.120Z,2.48
2017-05-23T20:58:44.433Z,2.52
2017-05-23T21:01:12.876Z,2.26
2017-05-23T21:03:41.264Z,2.88
2017-05-23T21:06:09.639Z,2.60
2017-05-23T21:08:37.971Z,2.52
2017-05-23T21:11:06.289Z,2.34
2017-05-23T21:13:34.667Z,2.52
2017-05-23T21:16:02.972Z,2.80
2017-05-23T21:18:31.310Z,2.48
2017-05-23T21:20:59.670Z,2.70
2017-05-23T21:23:28.087Z,2.58
2017-05-23T21:25:56.459Z,2.12
2017-05-23T21:28:26.358Z,2.34
2017-05-23T21:30:54.750Z,2.42
2017-05-23T21:33:23.142Z,2.36
2017-05-23T21:35:51.521Z,2.76
2017-05-23T21:38:19.858Z,2.98
2017-05-23T21:40:48.183Z,3.18
2017-05-23T21:43:16.656Z,2.68
2017-05-23T21:45:45.010Z,3.66
2017-05-23T21:48:13.347Z,2.38
2017-05-23T21:50:41.683Z,2.54
2017-05-23T21:53:10.071Z,2.86
2017-05-23T21:55:38.420Z,2.98
2017-05-23T21:58:06.739Z,2.52
2017-05-23T22:00:35.085Z,3.26
2017-05-23T22:03:03.391Z,2.34
2017-05-23T22:05:31.714Z,3.72
2017-05-23T22:08:00.051Z,2.44
2017-05-23T22:10:28.369Z,2.64
2017-05-23T22:12:56.811Z,1.90
2017-05-23T22:15:25.231Z,2.54
2017-05-23T22:17:53.672Z,2.86
2017-05-23T22:20:22.155Z,2.72
2017-05-23T22:22:50.486Z,3.10
2017-05-23T22:25:18.805Z,2.58
2017-05-23T22:27:47.133Z,2.96
2017-05-23T22:30:15.470Z,2.70
2017-05-23T22:32:43.845Z,2.60
2017-05-23T22:35:12.223Z,2.70
2017-05-23T22:37:40.614Z,3.10
2017-05-23T22:40:08.942Z,2.54
2017-05-23T22:42:37.264Z,2.10
2017-05-23T22:45:05.643Z,2.40
2017-05-23T22:47:34.022Z,2.90
2017-05-23T22:50:02.410Z,2.96
2017-05-23T22:52:30.795Z,2.28
2017-05-23T22:54:59.176Z,2.90
2017-05-23T22:57:27.483Z,2.88
2017-05-23T22:59:55.803Z,2.58
2017-05-23T23:02:24.115Z,2.72
2017-05-23T23:04:52.435Z,3.18
2017-05-23T23:07:20.754Z,2.46
2017-05-23T23:09:49.142Z,3.28
2017-05-23T23:12:17.514Z,2.66
2017-05-23T23:14:45.899Z,2.44
2017-05-23T23:17:14.284Z,2.58
2017-05-23T23:19:42.656Z,2.72
2017-05-23T23:22:11.034Z,2.50
2017-05-23T23:24:39.415Z,2.72
2017-05-23T23:27:07.802Z,2.56
2017-05-23T23:29:36.176Z,3.40
2017-05-23T23:32:04.560Z,2.72
2017-05-23T23:34:32.931Z,2.54
2017-05-23T23:37:01.316Z,2.88
2017-05-23T23:39:29.698Z,2.54
2017-05-23T23:41:58.076Z,3.02
2017-05-23T23:44:26.387Z,3.00
2017-05-23T23:46:54.730Z,2.74
2017-05-23T23:49:23.045Z,2.64
2017-05-23T23:51:51.391Z,3.20
2017-05-23T23:54:19.724Z,3.62
2017-05-23T23:56:48.026Z,2.84
2017-05-23T23:59:16.450Z,2.18
